createdAt,value
2023-02-03T00:00:50.735Z,20.85
2023-02-03T00:03:20.488Z,28.27
2023-02-03T00:05:48.603Z,24.13
2023-02-03T00:08:18.416Z,23.83
2023-02-03T00:10:46.999Z,22.00
2023-02-03T00:13:15.726Z,20.77
2023-02-03T00:15:46.802Z,21.60
2023-02-03T00:18:14.541Z,23.85
2023-02-03T00:20:43.472Z,26.40
2023-02-03T00:23:12.970Z,22.27
2023-02-03T00:25:41.793Z,22.83
2023-02-03T00:28:10.321Z,24.88
2023-02-03T00:30:38.867Z,24.77
2023-02-03T00:33:07.335Z,22.35
2023-02-03T00:35:34.981Z,22.65
2023-02-03T00:38:04.468Z,23.85
2023-02-03T00:40:32.117Z,23.08
2023-02-03T00:43:00.227Z,22.08
2023-02-03T00:45:29.282Z,21.75
2023-02-03T00:47:57.437Z,20.65
2023-02-03T00:50:25.406Z,20.42
2023-02-03T00:52:54.190Z,23.35
2023-02-03T00:55:23.183Z,21.40
2023-02-03T00:57:50.831Z,21.27
2023-02-03T01:00:20.155Z,21.35
2023-02-03T01:02:48.449Z,22.00
2023-02-03T01:05:16.155Z,19.23
2023-02-03T01:07:44.272Z,20.15
2023-02-03T01:10:14.740Z,21.48
2023-02-03T01:12:43.740Z,21.17
2023-02-03T01:15:11.707Z,22.00
2023-02-03T01:17:39.479Z,20.85
2023-02-03T01:20:07.865Z,20.88
2023-02-03T01:22:35.969Z,19.35
2023-02-03T01:25:03.588Z,20.52
2023-02-03T01:27:33.566Z,18.70
2023-02-03T01:30:02.645Z,21.05
2023-02-03T01:32:30.890Z,21.58
2023-02-03T01:35:00.305Z,25.13
2023-02-03T01:37:27.991Z,22.73
2023-02-03T01:39:56.329Z,25.13
2023-02-03T01:42:24.801Z,23.33
2023-02-03T01:44:53.234Z,21.10
2023-02-03T01:47:29.153Z,19.70
2023-02-03T01:50:04.093Z,19.00
2023-02-03T01:52:33.528Z,21.58
2023-02-03T01:55:04.947Z,19.65
2023-02-03T01:57:37.648Z,19.23
2023-02-03T02:00:07.856Z,22.23
2023-02-03T02:02:45.806Z,20.95
2023-02-03T02:05:19.507Z,20.23
2023-02-03T02:07:48.905Z,19.15
2023-02-03T02:10:17.800Z,18.65
2023-02-03T02:12:45.682Z,20.25
2023-02-03T02:15:45.328Z,19.63
2023-02-03T02:18:37.455Z,16.70
2023-02-03T02:24:24.787Z,17.55
2023-02-03T02:27:30.429Z,17.80
2023-02-03T02:30:37.871Z,18.08
2023-02-03T02:33:16.701Z,17.02
2023-02-03T02:35:51.899Z,16.38
2023-02-03T02:38:32.729Z,18.35
2023-02-03T02:41:06.492Z,14.45
2023-02-03T02:43:42.724Z,15.93
2023-02-03T02:46:14.658Z,16.88
2023-02-03T02:48:52.709Z,16.70
2023-02-03T02:51:22.532Z,15.75
2023-02-03T02:53:55.293Z,13.25
2023-02-03T02:56:26.437Z,17.65
2023-02-03T02:58:57.153Z,15.13
2023-02-03T03:01:24.942Z,18.45
2023-02-03T03:04:24.771Z,17.77
2023-02-03T03:06:58.133Z,15.73
2023-02-03T03:09:35.825Z,15.38
2023-02-03T03:12:08.571Z,17.20
2023-02-03T03:14:39.720Z,17.58
2023-02-03T03:17:12.809Z,12.95
2023-02-03T03:19:47.948Z,14.23
2023-02-03T03:22:18.787Z,14.13
2023-02-03T03:24:49.701Z,17.00
2023-02-03T03:27:27.685Z,15.73
2023-02-03T03:29:59.278Z,16.50
2023-02-03T03:32:28.022Z,15.57
2023-02-03T03:34:58.886Z,15.57
2023-02-03T03:40:34.676Z,16.02
2023-02-03T03:43:17.693Z,16.35
2023-02-03T03:45:51.839Z,17.73
2023-02-03T03:48:28.821Z,16.65
2023-02-03T03:51:03.824Z,13.60
2023-02-03T03:53:36.681Z,15.05
2023-02-03T03:56:07.612Z,13.82
2023-02-03T03:58:37.779Z,17.67
2023-02-03T04:01:08.941Z,13.88
2023-02-03T04:03:40.621Z,16.80
2023-02-03T04:06:09.727Z,15.35
2023-02-03T04:08:37.353Z,14.43
2023-02-03T04:11:05.475Z,14.38
2023-02-03T04:13:33.710Z,13.73
2023-02-03T04:16:02.407Z,14.65
2023-02-03T04:18:30.096Z,12.27
2023-02-03T04:21:02.834Z,14.80
2023-02-03T04:23:31.745Z,17.38
2023-02-03T04:26:03.683Z,12.02
2023-02-03T04:28:32.680Z,14.70
2023-02-03T04:31:01.773Z,13.00
2023-02-03T04:33:30.405Z,11.70
2023-02-03T04:35:59.695Z,16.60
2023-02-03T04:38:27.315Z,10.20
2023-02-03T04:40:56.393Z,10.20
2023-02-03T04:43:24.014Z,12.18
2023-02-03T04:45:51.825Z,11.95
2023-02-03T04:48:19.432Z,12.13
2023-02-03T04:50:47.259Z,13.15
2023-02-03T04:53:16.027Z,11.27
2023-02-03T04:55:47.592Z,10.00
2023-02-03T04:58:18.695Z,8.40
2023-02-03T05:00:52.792Z,9.60
2023-02-03T05:03:46.644Z,15.95
2023-02-03T05:06:16.707Z,10.70
2023-02-03T05:08:46.116Z,8.50
2023-02-03T05:11:14.689Z,12.38
2023-02-03T05:13:44.675Z,12.00
2023-02-03T05:16:12.869Z,11.90
2023-02-03T05:18:43.145Z,8.80
2023-02-03T05:21:10.808Z,8.07
2023-02-03T05:23:38.794Z,12.10
2023-02-03T05:26:07.301Z,11.93
2023-02-03T05:28:35.286Z,13.02
2023-02-03T05:31:04.777Z,9.77
2023-02-03T05:33:38.723Z,9.55
2023-02-03T05:36:32.106Z,8.77
2023-02-03T05:39:01.216Z,8.88
2023-02-03T05:41:49.684Z,10.63
2023-02-03T05:44:17.338Z,11.40
2023-02-03T05:46:46.284Z,8.35
2023-02-03T05:49:14.004Z,8.40
2023-02-03T05:51:45.231Z,9.20
2023-02-03T05:54:12.938Z,9.90
2023-02-03T05:57:05.714Z,11.13
2023-02-03T05:59:35.184Z,10.18
2023-02-03T06:02:04.173Z,10.13
2023-02-03T06:04:31.834Z,8.27
2023-02-03T06:07:01.723Z,11.05
2023-02-03T06:09:54.739Z,8.88
2023-02-03T06:12:48.709Z,8.10
2023-02-03T06:15:16.871Z,8.35
2023-02-03T06:17:46.988Z,9.90
2023-02-03T06:20:16.152Z,10.10
2023-02-03T06:22:44.218Z,8.20
2023-02-03T06:25:14.706Z,13.80
2023-02-03T06:27:44.831Z,8.20
2023-02-03T06:30:14.903Z,7.95
2023-02-03T06:32:42.565Z,7.72
2023-02-03T06:35:11.898Z,8.40
2023-02-03T06:37:41.182Z,8.27
2023-02-03T06:40:09.599Z,9.57
2023-02-03T06:42:41.697Z,7.35
2023-02-03T06:45:11.110Z,8.27
2023-02-03T06:47:40.959Z,7.82
2023-02-03T06:50:09.711Z,10.88
2023-02-03T06:52:41.725Z,9.07
2023-02-03T06:55:10.944Z,8.40
2023-02-03T06:57:44.836Z,8.43
2023-02-03T07:00:17.481Z,12.07
2023-02-03T07:02:46.918Z,10.00
2023-02-03T07:05:14.828Z,13.57
2023-02-03T07:07:43.809Z,7.00
2023-02-03T07:10:11.639Z,7.45
2023-02-03T07:12:39.248Z,8.70
2023-02-03T07:15:07.706Z,8.88
2023-02-03T07:17:37.405Z,7.57
2023-02-03T07:20:06.156Z,9.73
2023-02-03T07:22:34.711Z,10.32
2023-02-03T07:25:03.734Z,9.55
2023-02-03T07:27:32.696Z,8.75
2023-02-03T07:30:00.314Z,10.10
2023-02-03T07:32:28.137Z,10.05
2023-02-03T07:34:55.952Z,9.43
2023-02-03T07:37:23.824Z,9.13
2023-02-03T07:39:51.520Z,11.40
2023-02-03T07:42:20.638Z,9.60
2023-02-03T07:44:51.401Z,9.73
2023-02-03T07:47:19.257Z,10.63
2023-02-03T07:49:47.802Z,12.60
2023-02-03T07:52:15.399Z,11.52
2023-02-03T07:54:43.104Z,8.55
2023-02-03T07:57:10.833Z,11.23
2023-02-03T07:59:39.818Z,11.43
2023-02-03T08:02:11.213Z,11.43
2023-02-03T08:04:38.829Z,15.52
2023-02-03T08:07:08.707Z,13.30
2023-02-03T08:09:37.232Z,10.05
2023-02-03T08:12:05.535Z,8.90
2023-02-03T08:14:33.116Z,11.45
2023-02-03T08:17:02.697Z,8.98
2023-02-03T08:19:32.702Z,10.55
2023-02-03T08:24:32.333Z,12.95
2023-02-03T08:27:01.685Z,14.20
2023-02-03T08:29:29.279Z,10.15
2023-02-03T08:35:16.980Z,11.65
2023-02-03T08:37:48.432Z,9.95
2023-02-03T08:40:16.489Z,10.68
2023-02-03T08:42:44.545Z,12.88
2023-02-03T08:45:12.621Z,11.65
2023-02-03T08:47:41.914Z,13.45
2023-02-03T08:50:11.060Z,10.63
2023-02-03T08:52:43.712Z,12.43
2023-02-03T08:55:11.995Z,13.40
2023-02-03T08:57:41.946Z,9.85
2023-02-03T09:00:11.724Z,8.57
2023-02-03T09:02:40.722Z,13.10
2023-02-03T09:05:11.074Z,11.27
2023-02-03T09:07:38.934Z,12.20
2023-02-03T09:10:06.912Z,9.25
2023-02-03T09:15:30.704Z,12.90
2023-02-03T09:18:26.822Z,9.73
2023-02-03T09:21:01.666Z,12.38
2023-02-03T09:23:30.712Z,10.50
2023-02-03T09:26:02.881Z,12.68
2023-02-03T09:28:30.663Z,11.77
2023-02-03T09:31:01.301Z,12.70
2023-02-03T09:36:23.219Z,14.07
2023-02-03T09:38:51.207Z,9.98
2023-02-03T09:41:32.918Z,10.00
2023-02-03T09:44:07.464Z,11.95
2023-02-03T09:46:41.813Z,14.98
2023-02-03T09:49:20.732Z,12.80
2023-02-03T09:51:53.247Z,10.82
2023-02-03T09:54:24.531Z,10.95
2023-02-03T09:56:55.581Z,11.68
2023-02-03T09:59:25.722Z,15.75
2023-02-03T10:01:59.534Z,10.88
2023-02-03T10:04:35.691Z,8.63
2023-02-03T10:07:11.813Z,9.82
2023-02-03T10:09:57.703Z,13.27
2023-02-03T10:12:52.611Z,11.25
2023-02-03T10:15:51.736Z,10.90
2023-02-03T10:18:26.805Z,12.20
2023-02-03T10:21:00.780Z,9.13
2023-02-03T10:23:34.655Z,8.32
2023-02-03T10:26:06.166Z,11.52
2023-02-03T10:28:39.331Z,9.93
2023-02-03T10:31:16.841Z,11.10
2023-02-03T10:33:44.605Z,10.55
2023-02-03T10:36:21.139Z,11.02
2023-02-03T10:38:59.813Z,11.38
2023-02-03T10:41:31.181Z,14.25
2023-02-03T10:44:02.849Z,8.90
2023-02-03T10:46:33.774Z,12.43
2023-02-03T10:49:07.713Z,12.85
2023-02-03T10:51:42.312Z,12.50
2023-02-03T10:54:29.741Z,15.45
2023-02-03T10:57:04.231Z,8.93
2023-02-03T10:59:36.175Z,10.75
2023-02-03T11:02:10.077Z,14.55
2023-02-03T11:05:11.735Z,11.43
2023-02-03T11:07:41.466Z,10.35
2023-02-03T11:10:28.270Z,9.98
2023-02-03T11:13:12.809Z,9.60
2023-02-03T11:16:07.531Z,7.85
2023-02-03T11:18:40.030Z,11.50
2023-02-03T11:21:17.049Z,10.63
2023-02-03T11:23:58.725Z,9.23
2023-02-03T11:26:30.058Z,10.43
2023-02-03T11:29:00.310Z,10.98
2023-02-03T11:31:33.842Z,9.52
2023-02-03T11:34:06.016Z,9.18
2023-02-03T11:36:37.726Z,11.63
2023-02-03T11:39:20.386Z,6.15
2023-02-03T11:41:48.901Z,11.88
2023-02-03T11:44:22.724Z,9.82
2023-02-03T11:46:58.327Z,11.10
2023-02-03T11:49:58.715Z,9.95
2023-02-03T11:52:42.800Z,10.70
2023-02-03T11:55:22.380Z,12.70
2023-02-03T11:58:01.705Z,9.55
2023-02-03T12:00:43.709Z,9.57
2023-02-03T12:03:30.696Z,7.33
2023-02-03T12:06:17.971Z,9.02
2023-02-03T12:08:59.487Z,11.07
2023-02-03T12:12:09.275Z,15.63
2023-02-03T12:19:13.250Z,8.57
2023-02-03T12:21:45.334Z,8.70
2023-02-03T12:24:30.757Z,10.55
2023-02-03T12:27:15.267Z,13.43
2023-02-03T12:29:46.514Z,11.35
2023-02-03T12:32:25.922Z,12.40
2023-02-03T12:35:00.893Z,14.25
2023-02-03T12:37:31.724Z,8.93
2023-02-03T12:40:03.578Z,15.00
2023-02-03T12:45:10.900Z,12.68
2023-02-03T12:47:45.521Z,13.90
2023-02-03T12:50:18.064Z,17.17
2023-02-03T12:52:52.736Z,12.50
2023-02-03T12:55:29.264Z,13.95
2023-02-03T12:58:03.061Z,14.57
2023-02-03T13:00:39.883Z,13.88
2023-02-03T13:03:15.189Z,14.30
2023-02-03T13:05:49.180Z,14.68
2023-02-03T13:08:26.831Z,13.07
2023-02-03T13:11:00.136Z,11.63
2023-02-03T13:13:36.710Z,17.17
2023-02-03T13:16:08.421Z,15.27
2023-02-03T13:18:38.718Z,15.40
2023-02-03T13:21:11.554Z,12.23
2023-02-03T13:23:44.567Z,16.60
2023-02-03T13:26:35.885Z,18.75
2023-02-03T13:29:35.158Z,19.13
2023-02-03T13:32:16.503Z,16.75
2023-02-03T13:35:03.572Z,16.60
2023-02-03T13:38:07.937Z,17.55
2023-02-03T13:40:51.354Z,19.48
2023-02-03T13:43:37.210Z,18.52
2023-02-03T13:46:09.348Z,17.35
2023-02-03T13:51:09.439Z,17.52
2023-02-03T13:53:39.523Z,21.30
2023-02-03T13:56:09.930Z,18.95
2023-02-03T13:58:40.189Z,18.30
2023-02-03T14:01:30.174Z,20.30
2023-02-03T14:03:59.867Z,21.70
2023-02-03T14:07:00.736Z,20.15
2023-02-03T14:09:39.942Z,19.17
2023-02-03T14:12:33.372Z,18.17
2023-02-03T14:15:14.071Z,20.05
2023-02-03T14:18:01.865Z,25.27
2023-02-03T14:20:45.077Z,13.60
2023-02-03T14:23:19.372Z,19.60
2023-02-03T14:25:53.723Z,17.73
2023-02-03T14:28:26.911Z,17.03
2023-02-03T14:31:17.648Z,20.80
2023-02-03T14:34:04.355Z,21.35
2023-02-03T14:36:45.712Z,23.33
2023-02-03T14:39:39.488Z,20.45
2023-02-03T14:42:18.287Z,15.95
2023-02-03T14:45:01.446Z,20.08
2023-02-03T14:47:44.735Z,21.00
2023-02-03T14:50:29.774Z,18.58
2023-02-03T14:53:20.396Z,22.67
2023-02-03T14:55:57.232Z,21.65
2023-02-03T14:58:33.355Z,23.73
2023-02-03T15:01:04.982Z,19.38
2023-02-03T15:03:36.715Z,23.33
2023-02-03T15:06:07.080Z,18.95
2023-02-03T15:09:00.032Z,15.85
2023-02-03T15:11:33.659Z,18.45
2023-02-03T15:14:24.725Z,17.30
2023-02-03T15:16:56.869Z,14.00
2023-02-03T15:19:29.230Z,19.90
2023-02-03T15:21:58.305Z,19.90
2023-02-03T15:24:27.274Z,16.52
2023-02-03T15:26:58.739Z,17.02
2023-02-03T15:29:31.332Z,18.52
2023-02-03T15:32:13.467Z,18.85
2023-02-03T15:34:44.704Z,15.93
2023-02-03T15:37:45.741Z,16.00
2023-02-03T15:40:17.390Z,25.15
2023-02-03T15:45:25.687Z,17.77
2023-02-03T15:48:00.016Z,16.70
2023-02-03T15:50:34.126Z,18.63
2023-02-03T15:53:41.117Z,26.45
2023-02-03T15:58:47.435Z,15.25
2023-02-03T16:01:18.250Z,19.52
2023-02-03T16:03:49.226Z,20.73
2023-02-03T16:06:20.906Z,18.73
2023-02-03T16:08:52.708Z,18.15
2023-02-03T16:11:26.825Z,17.65
2023-02-03T16:13:56.480Z,21.17
2023-02-03T16:16:27.292Z,22.17
2023-02-03T16:18:58.745Z,16.48
2023-02-03T16:21:32.823Z,18.73
2023-02-03T16:24:03.210Z,15.10
2023-02-03T16:26:33.509Z,18.63
2023-02-03T16:29:33.741Z,16.88
2023-02-03T16:32:19.372Z,20.63
2023-02-03T16:35:05.025Z,23.13
2023-02-03T16:37:53.794Z,23.20
2023-02-03T16:40:42.290Z,19.85
2023-02-03T16:43:30.296Z,17.80
2023-02-03T19:00:00.747Z,19.83
2023-02-03T19:02:28.761Z,21.27
2023-02-03T19:04:56.349Z,23.98
2023-02-03T19:07:24.960Z,20.38
2023-02-03T19:09:52.524Z,17.65
2023-02-03T19:12:20.193Z,15.68
2023-02-03T19:14:47.812Z,19.10
2023-02-03T19:17:17.691Z,21.45
2023-02-03T19:19:45.516Z,20.92
2023-02-03T19:22:13.837Z,24.58
2023-02-03T19:24:41.475Z,17.40
2023-02-03T19:27:09.729Z,18.05
2023-02-03T19:29:41.822Z,16.33
2023-02-03T19:32:12.937Z,18.35
2023-02-03T19:34:42.022Z,23.92
2023-02-03T19:37:09.888Z,25.30
2023-02-03T19:39:37.543Z,16.27
2023-02-03T19:42:05.322Z,14.45
2023-02-03T19:44:33.065Z,18.55
2023-02-03T19:47:00.638Z,16.20
2023-02-03T19:49:28.633Z,23.60
2023-02-03T19:51:59.605Z,22.15
2023-02-03T19:54:28.210Z,14.38
2023-02-03T19:56:58.762Z,21.05
2023-02-03T19:59:26.394Z,21.50
2023-02-03T20:01:56.579Z,21.98
2023-02-03T20:04:26.075Z,18.73
2023-02-03T20:06:54.731Z,23.27
2023-02-03T20:09:24.778Z,19.15
2023-02-03T20:11:52.366Z,23.42
2023-02-03T20:14:20.140Z,22.00
2023-02-03T20:16:50.724Z,22.98
2023-02-03T20:19:24.831Z,22.40
2023-02-03T20:21:56.142Z,18.75
2023-02-03T20:24:25.132Z,23.88
2023-02-03T20:26:52.782Z,20.45
2023-02-03T20:29:20.422Z,19.35
2023-02-03T20:31:48.032Z,21.38
2023-02-03T20:34:15.703Z,22.40
2023-02-03T20:36:43.279Z,22.35
2023-02-03T20:39:19.012Z,24.23
2023-02-03T20:41:49.797Z,22.70
2023-02-03T20:44:17.565Z,23.10
2023-02-03T20:46:45.712Z,20.92
2023-02-03T20:49:14.489Z,23.98
2023-02-03T20:51:42.228Z,27.13
2023-02-03T20:54:17.720Z,20.35
2023-02-03T20:56:47.994Z,20.15
2023-02-03T20:59:18.145Z,24.67
2023-02-03T21:01:46.878Z,21.95
2023-02-03T21:04:34.750Z,21.95
2023-02-03T21:07:11.268Z,24.15
2023-02-03T21:09:41.057Z,19.80
2023-02-03T21:12:13.315Z,22.35
2023-02-03T21:14:44.845Z,24.60
2023-02-03T21:17:18.010Z,18.90
2023-02-03T21:19:46.208Z,18.50
2023-02-03T21:22:19.705Z,20.25
2023-02-03T21:24:52.835Z,23.63
2023-02-03T21:27:31.024Z,23.80
2023-02-03T21:30:04.706Z,26.05
2023-02-03T21:32:38.193Z,19.25
2023-02-03T21:35:23.992Z,20.33
2023-02-03T21:37:55.938Z,21.85
2023-02-03T21:40:28.363Z,27.67
2023-02-03T21:42:58.178Z,21.85
2023-02-03T21:45:30.771Z,24.08
2023-02-03T21:48:01.434Z,22.77
2023-02-03T21:50:31.982Z,21.98
2023-02-03T21:53:17.739Z,20.90
2023-02-03T21:55:46.851Z,21.33
2023-02-03T21:58:23.416Z,19.52
2023-02-03T22:00:52.881Z,19.52
2023-02-03T22:03:27.033Z,21.40
2023-02-03T22:06:13.878Z,24.75
2023-02-03T22:08:43.292Z,22.02
2023-02-03T22:11:11.786Z,25.33
2023-02-03T22:13:43.122Z,22.80
2023-02-03T22:16:13.744Z,22.77
2023-02-03T22:18:41.740Z,24.58
2023-02-03T22:21:11.886Z,32.25
2023-02-03T22:23:40.012Z,24.17
2023-02-03T22:26:09.840Z,18.90
2023-02-03T22:28:38.726Z,22.77
2023-02-03T22:31:08.948Z,23.25
2023-02-03T22:33:41.085Z,24.35
2023-02-03T22:36:15.747Z,29.35
2023-02-03T22:38:44.024Z,29.08
2023-02-03T22:41:12.983Z,21.38
2023-02-03T22:43:41.116Z,23.60
2023-02-03T22:46:10.188Z,23.60
2023-02-03T22:48:38.310Z,21.73
2023-02-03T22:51:06.545Z,27.85
2023-02-03T22:53:35.865Z,26.05
2023-02-03T22:56:03.774Z,21.63
2023-02-03T22:58:31.366Z,24.45
2023-02-03T23:00:59.010Z,24.65
2023-02-03T23:03:33.907Z,23.02
2023-02-03T23:06:01.719Z,20.08
2023-02-03T23:08:30.367Z,24.83
2023-02-03T23:10:58.557Z,21.83
2023-02-03T23:13:28.148Z,23.30
2023-02-03T23:15:55.947Z,25.90
2023-02-03T23:18:23.995Z,29.10
2023-02-03T23:20:54.094Z,24.88
2023-02-03T23:23:22.196Z,26.92
2023-02-03T23:25:53.017Z,24.05
2023-02-03T23:28:20.896Z,20.60
2023-02-03T23:30:50.429Z,26.73
2023-02-03T23:33:19.337Z,26.15
2023-02-03T23:35:45.998Z,20.25
2023-02-03T23:38:16.744Z,23.20
2023-02-03T23:40:45.863Z,18.05
2023-02-03T23:43:13.522Z,23.30
2023-02-03T23:45:41.543Z,24.88
2023-02-03T23:48:09.609Z,22.40
2023-02-03T23:50:38.145Z,20.95
2023-02-03T23:53:06.171Z,17.40
2023-02-03T23:55:36.304Z,20.73
2023-02-03T23:58:04.947Z,21.92
